sensor_id;sensor_type;location;lat;lon;timestamp;temperature;humidity
16269;DHT22;8242;50.434;8.496;2023-02-03T00:00:56;16.70;95.80
16269;DHT22;8242;50.434;8.496;2023-02-03T00:03:22;16.70;95.70
16269;DHT22;8242;50.434;8.496;2023-02-03T00:05:50;16.80;95.80
16269;DHT22;8242;50.434;8.496;2023-02-03T00:08:17;16.70;95.70
16269;DHT22;8242;50.434;8.496;2023-02-03T00:10:44;16.70;95.70
16269;DHT22;8242;50.434;8.496;2023-02-03T00:13:11;16.70;95.80
16269;DHT22;8242;50.434;8.496;2023-02-03T00:15:38;16.70;95.80
16269;DHT22;8242;50.434;8.496;2023-02-03T00:18:04;16.70;95.80
16269;DHT22;8242;50.434;8.496;2023-02-03T00:20:31;16.60;95.80
16269;DHT22;8242;50.434;8.496;2023-02-03T00:23:03;16.60;95.90
16269;DHT22;8242;50.434;8.496;2023-02-03T00:25:30;16.60;95.80
16269;DHT22;8242;50.434;8.496;2023-02-03T00:27:57;16.60;95.90
16269;DHT22;8242;50.434;8.496;2023-02-03T00:30:23;16.60;95.90
16269;DHT22;8242;50.434;8.496;2023-02-03T00:32:50;16.60;95.90
16269;DHT22;8242;50.434;8.496;2023-02-03T00:35:16;16.50;95.90
16269;DHT22;8242;50.434;8.496;2023-02-03T00:37:43;16.50;95.90
16269;DHT22;8242;50.434;8.496;2023-02-03T00:40:13;16.50;95.90
16269;DHT22;8242;50.434;8.496;2023-02-03T00:42:39;16.50;95.90
16269;DHT22;8242;50.434;8.496;2023-02-03T00:45:06;16.50;96.00
16269;DHT22;8242;50.434;8.496;2023-02-03T00:47:33;16.40;95.90
16269;DHT22;8242;50.434;8.496;2023-02-03T00:49:59;16.40;96.00
16269;DHT22;8242;50.434;8.496;2023-02-03T00:52:26;16.40;96.00
16269;DHT22;8242;50.434;8.496;2023-02-03T00:54:52;16.40;96.00
16269;DHT22;8242;50.434;8.496;2023-02-03T00:57:20;16.40;96.00
16269;DHT22;8242;50.434;8.496;2023-02-03T00:59:47;16.40;95.90
16269;DHT22;8242;50.434;8.496;2023-02-03T01:02:13;16.40;95.90
16269;DHT22;8242;50.434;8.496;2023-02-03T01:04:41;16.50;95.90
16269;DHT22;8242;50.434;8.496;2023-02-03T01:07:07;16.50;95.80
16269;DHT22;8242;50.434;8.496;2023-02-03T01:09:34;16.60;95.80
16269;DHT22;8242;50.434;8.496;2023-02-03T01:12:00;16.60;95.70
16269;DHT22;8242;50.434;8.496;2023-02-03T01:14:28;16.70;95.60
16269;DHT22;8242;50.434;8.496;2023-02-03T01:16:55;16.70;95.50
16269;DHT22;8242;50.434;8.496;2023-02-03T01:19:21;16.70;95.40
16269;DHT22;8242;50.434;8.496;2023-02-03T01:21:48;16.70;95.40
16269;DHT22;8242;50.434;8.496;2023-02-03T01:24:15;16.80;95.50
16269;DHT22;8242;50.434;8.496;2023-02-03T01:26:41;16.70;95.40
16269;DHT22;8242;50.434;8.496;2023-02-03T01:29:08;16.70;95.40
16269;DHT22;8242;50.434;8.496;2023-02-03T01:31:37;16.70;95.40
16269;DHT22;8242;50.434;8.496;2023-02-03T01:34:04;16.70;95.40
16269;DHT22;8242;50.434;8.496;2023-02-03T01:36:31;16.70;95.50
16269;DHT22;8242;50.434;8.496;2023-02-03T01:38:58;16.70;95.50
16269;DHT22;8242;50.434;8.496;2023-02-03T01:41:26;16.60;95.50
16269;DHT22;8242;50.434;8.496;2023-02-03T01:43:54;16.60;95.60
16269;DHT22;8242;50.434;8.496;2023-02-03T01:46:24;16.60;95.60
16269;DHT22;8242;50.434;8.496;2023-02-03T01:48:54;16.60;95.60
16269;DHT22;8242;50.434;8.496;2023-02-03T01:51:21;16.50;95.60
16269;DHT22;8242;50.434;8.496;2023-02-03T01:53:48;16.50;95.60
16269;DHT22;8242;50.434;8.496;2023-02-03T01:56:16;16.50;95.60
16269;DHT22;8242;50.434;8.496;2023-02-03T01:58:42;16.50;95.70
16269;DHT22;8242;50.434;8.496;2023-02-03T02:01:11;16.40;95.60
16269;DHT22;8242;50.434;8.496;2023-02-03T02:03:38;16.40;95.70
16269;DHT22;8242;50.434;8.496;2023-02-03T02:06:08;16.40;95.70
16269;DHT22;8242;50.434;8.496;2023-02-03T02:08:36;16.40;95.70
16269;DHT22;8242;50.434;8.496;2023-02-03T02:11:03;16.40;95.80
16269;DHT22;8242;50.434;8.496;2023-02-03T02:13:31;16.40;95.80
16269;DHT22;8242;50.434;8.496;2023-02-03T02:16:02;16.40;95.80
16269;DHT22;8242;50.434;8.496;2023-02-03T02:18:36;16.40;95.70
16269;DHT22;8242;50.434;8.496;2023-02-03T02:23:55;16.60;95.50
16269;DHT22;8242;50.434;8.496;2023-02-03T02:29:31;16.80;95.20
16269;DHT22;8242;50.434;8.496;2023-02-03T02:32:07;16.90;95.10
16269;DHT22;8242;50.434;8.496;2023-02-03T02:34:38;17.00;95.00
16269;DHT22;8242;50.434;8.496;2023-02-03T02:37:09;17.00;95.00
16269;DHT22;8242;50.434;8.496;2023-02-03T02:39:42;17.00;95.00
16269;DHT22;8242;50.434;8.496;2023-02-03T02:42:13;17.00;95.00
16269;DHT22;8242;50.434;8.496;2023-02-03T02:44:42;17.00;95.10
16269;DHT22;8242;50.434;8.496;2023-02-03T02:47:12;16.90;95.00
16269;DHT22;8242;50.434;8.496;2023-02-03T02:49:41;16.90;95.10
16269;DHT22;8242;50.434;8.496;2023-02-03T02:52:09;16.90;95.20
16269;DHT22;8242;50.434;8.496;2023-02-03T02:54:38;16.80;95.20
16269;DHT22;8242;50.434;8.496;2023-02-03T02:57:05;16.80;95.20
16269;DHT22;8242;50.434;8.496;2023-02-03T02:59:35;16.80;95.30
16269;DHT22;8242;50.434;8.496;2023-02-03T03:02:01;16.70;95.20
16269;DHT22;8242;50.434;8.496;2023-02-03T03:04:30;16.70;95.30
16269;DHT22;8242;50.434;8.496;2023-02-03T03:06:59;16.70;95.30
16269;DHT22;8242;50.434;8.496;2023-02-03T03:09:28;16.70;95.30
16269;DHT22;8242;50.434;8.496;2023-02-03T03:12:01;16.70;95.40
16269;DHT22;8242;50.434;8.496;2023-02-03T03:14:30;16.70;95.40
16269;DHT22;8242;50.434;8.496;2023-02-03T03:16:58;16.60;95.50
16269;DHT22;8242;50.434;8.496;2023-02-03T03:19:26;16.60;95.50
16269;DHT22;8242;50.434;8.496;2023-02-03T03:21:58;16.60;95.60
16269;DHT22;8242;50.434;8.496;2023-02-03T03:24:27;16.60;95.60
16269;DHT22;8242;50.434;8.496;2023-02-03T03:26:55;16.60;95.70
16269;DHT22;8242;50.434;8.496;2023-02-03T03:29:24;16.60;95.70
16269;DHT22;8242;50.434;8.496;2023-02-03T03:31:52;16.50;95.70
16269;DHT22;8242;50.434;8.496;2023-02-03T03:34:18;16.50;95.70
16269;DHT22;8242;50.434;8.496;2023-02-03T03:36:46;16.50;95.70
16269;DHT22;8242;50.434;8.496;2023-02-03T03:39:16;16.40;95.70
16269;DHT22;8242;50.434;8.496;2023-02-03T03:41:49;16.50;95.70
16269;DHT22;8242;50.434;8.496;2023-02-03T03:44:20;16.40;95.70
16269;DHT22;8242;50.434;8.496;2023-02-03T03:46:49;16.40;95.70
16269;DHT22;8242;50.434;8.496;2023-02-03T03:49:16;16.40;95.60
16269;DHT22;8242;50.434;8.496;2023-02-03T03:51:45;16.50;95.60
16269;DHT22;8242;50.434;8.496;2023-02-03T03:54:14;16.50;95.50
16269;DHT22;8242;50.434;8.496;2023-02-03T03:56:44;16.60;95.50
16269;DHT22;8242;50.434;8.496;2023-02-03T03:59:12;16.60;95.40
16269;DHT22;8242;50.434;8.496;2023-02-03T04:01:39;16.60;95.40
16269;DHT22;8242;50.434;8.496;2023-02-03T04:04:06;16.60;95.30
16269;DHT22;8242;50.434;8.496;2023-02-03T04:06:35;16.60;95.30
16269;DHT22;8242;50.434;8.496;2023-02-03T04:09:01;16.70;95.30
16269;DHT22;8242;50.434;8.496;2023-02-03T04:11:28;16.60;95.30
16269;DHT22;8242;50.434;8.496;2023-02-03T04:14:13;16.60;95.30
16269;DHT22;8242;50.434;8.496;2023-02-03T04:16:40;16.60;95.30
16269;DHT22;8242;50.434;8.496;2023-02-03T04:19:06;16.70;95.30
16269;DHT22;8242;50.434;8.496;2023-02-03T04:21:33;16.60;95.30
16269;DHT22;8242;50.434;8.496;2023-02-03T04:23:59;16.60;95.40
16269;DHT22;8242;50.434;8.496;2023-02-03T04:26:26;16.60;95.40
16269;DHT22;8242;50.434;8.496;2023-02-03T04:28:52;16.50;95.40
16269;DHT22;8242;50.434;8.496;2023-02-03T04:31:20;16.50;95.40
16269;DHT22;8242;50.434;8.496;2023-02-03T04:33:47;16.50;95.50
16269;DHT22;8242;50.434;8.496;2023-02-03T04:36:13;16.50;95.50
16269;DHT22;8242;50.434;8.496;2023-02-03T04:38:40;16.50;95.50
16269;DHT22;8242;50.434;8.496;2023-02-03T04:41:06;16.40;95.50
16269;DHT22;8242;50.434;8.496;2023-02-03T04:43:33;16.40;95.50
16269;DHT22;8242;50.434;8.496;2023-02-03T04:46:00;16.40;95.60
16269;DHT22;8242;50.434;8.496;2023-02-03T04:48:27;16.40;95.60
16269;DHT22;8242;50.434;8.496;2023-02-03T04:50:54;16.40;95.70
16269;DHT22;8242;50.434;8.496;2023-02-03T04:53:20;16.40;95.70
16269;DHT22;8242;50.434;8.496;2023-02-03T04:55:47;16.40;95.70
16269;DHT22;8242;50.434;8.496;2023-02-03T04:58:14;16.30;95.70
16269;DHT22;8242;50.434;8.496;2023-02-03T05:00:40;16.40;96.00
16269;DHT22;8242;50.434;8.496;2023-02-03T05:03:07;16.40;95.70
16269;DHT22;8242;50.434;8.496;2023-02-03T05:05:34;16.40;95.60
16269;DHT22;8242;50.434;8.496;2023-02-03T05:08:01;16.40;95.60
16269;DHT22;8242;50.434;8.496;2023-02-03T05:10:27;16.40;95.50
16269;DHT22;8242;50.434;8.496;2023-02-03T05:12:54;16.40;95.50
16269;DHT22;8242;50.434;8.496;2023-02-03T05:15:21;16.40;95.80
16269;DHT22;8242;50.434;8.496;2023-02-03T05:17:47;16.40;95.60
16269;DHT22;8242;50.434;8.496;2023-02-03T05:20:14;16.40;95.60
16269;DHT22;8242;50.434;8.496;2023-02-03T05:22:42;16.40;95.60
16269;DHT22;8242;50.434;8.496;2023-02-03T05:25:08;16.40;95.60
16269;DHT22;8242;50.434;8.496;2023-02-03T05:27:36;16.40;95.60
16269;DHT22;8242;50.434;8.496;2023-02-03T05:30:03;16.40;95.60
16269;DHT22;8242;50.434;8.496;2023-02-03T05:32:30;16.40;95.60
16269;DHT22;8242;50.434;8.496;2023-02-03T05:34:56;16.30;95.60
16269;DHT22;8242;50.434;8.496;2023-02-03T05:37:23;16.30;95.60
16269;DHT22;8242;50.434;8.496;2023-02-03T05:39:50;16.30;95.60
16269;DHT22;8242;50.434;8.496;2023-02-03T05:42:17;16.30;95.60
16269;DHT22;8242;50.434;8.496;2023-02-03T05:44:43;16.30;95.60
16269;DHT22;8242;50.434;8.496;2023-02-03T05:47:09;16.30;95.60
16269;DHT22;8242;50.434;8.496;2023-02-03T05:49:36;16.30;95.60
16269;DHT22;8242;50.434;8.496;2023-02-03T05:52:02;16.40;95.80
16269;DHT22;8242;50.434;8.496;2023-02-03T05:54:29;16.40;95.90
16269;DHT22;8242;50.434;8.496;2023-02-03T05:56:57;16.40;95.90
16269;DHT22;8242;50.434;8.496;2023-02-03T05:59:23;16.40;96.30
16269;DHT22;8242;50.434;8.496;2023-02-03T06:01:50;16.40;96.40
16269;DHT22;8242;50.434;8.496;2023-02-03T06:04:16;16.40;96.30
16269;DHT22;8242;50.434;8.496;2023-02-03T06:06:43;16.40;96.20
16269;DHT22;8242;50.434;8.496;2023-02-03T06:09:11;16.40;96.10
16269;DHT22;8242;50.434;8.496;2023-02-03T06:11:38;16.40;96.10
16269;DHT22;8242;50.434;8.496;2023-02-03T06:14:08;16.30;96.10
16269;DHT22;8242;50.434;8.496;2023-02-03T06:16:34;16.30;96.10
16269;DHT22;8242;50.434;8.496;2023-02-03T06:19:01;16.30;96.00
16269;DHT22;8242;50.434;8.496;2023-02-03T06:21:27;16.30;96.00
16269;DHT22;8242;50.434;8.496;2023-02-03T06:23:54;16.30;96.00
16269;DHT22;8242;50.434;8.496;2023-02-03T06:26:20;16.30;96.00
16269;DHT22;8242;50.434;8.496;2023-02-03T06:28:47;16.30;96.20
16269;DHT22;8242;50.434;8.496;2023-02-03T06:31:15;16.20;96.20
16269;DHT22;8242;50.434;8.496;2023-02-03T06:33:41;16.20;96.10
16269;DHT22;8242;50.434;8.496;2023-02-03T06:36:08;16.20;96.10
16269;DHT22;8242;50.434;8.496;2023-02-03T06:38:35;16.20;96.10
16269;DHT22;8242;50.434;8.496;2023-02-03T06:41:01;16.10;96.20
16269;DHT22;8242;50.434;8.496;2023-02-03T06:43:28;16.10;96.20
16269;DHT22;8242;50.434;8.496;2023-02-03T06:45:54;16.10;97.10
16269;DHT22;8242;50.434;8.496;2023-02-03T06:48:22;16.20;97.20
16269;DHT22;8242;50.434;8.496;2023-02-03T06:50:49;16.20;97.10
16269;DHT22;8242;50.434;8.496;2023-02-03T06:53:15;16.20;97.00
16269;DHT22;8242;50.434;8.496;2023-02-03T06:55:42;16.30;96.90
16269;DHT22;8242;50.434;8.496;2023-02-03T06:58:08;16.30;96.90
16269;DHT22;8242;50.434;8.496;2023-02-03T07:00:35;16.40;96.90
16269;DHT22;8242;50.434;8.496;2023-02-03T07:03:01;16.40;96.90
16269;DHT22;8242;50.434;8.496;2023-02-03T07:05:30;16.40;96.80
16269;DHT22;8242;50.434;8.496;2023-02-03T07:07:56;16.50;97.00
16269;DHT22;8242;50.434;8.496;2023-02-03T07:10:23;16.50;96.80
16269;DHT22;8242;50.434;8.496;2023-02-03T07:12:49;16.50;96.70
16269;DHT22;8242;50.434;8.496;2023-02-03T07:15:16;16.50;96.70
16269;DHT22;8242;50.434;8.496;2023-02-03T07:17:43;16.50;97.10
16269;DHT22;8242;50.434;8.496;2023-02-03T07:20:11;16.50;96.90
16269;DHT22;8242;50.434;8.496;2023-02-03T07:22:39;16.50;97.00
16269;DHT22;8242;50.434;8.496;2023-02-03T07:25:08;16.50;97.10
16269;DHT22;8242;50.434;8.496;2023-02-03T07:27:34;16.60;96.90
16269;DHT22;8242;50.434;8.496;2023-02-03T07:30:01;16.60;96.80
16269;DHT22;8242;50.434;8.496;2023-02-03T07:32:28;16.50;96.60
16269;DHT22;8242;50.434;8.496;2023-02-03T07:34:55;16.50;96.60
16269;DHT22;8242;50.434;8.496;2023-02-03T07:37:21;16.40;96.60
16269;DHT22;8242;50.434;8.496;2023-02-03T07:39:49;16.30;96.60
16269;DHT22;8242;50.434;8.496;2023-02-03T07:42:16;16.30;96.60
16269;DHT22;8242;50.434;8.496;2023-02-03T07:44:42;16.30;96.60
16269;DHT22;8242;50.434;8.496;2023-02-03T07:47:09;16.20;96.50
16269;DHT22;8242;50.434;8.496;2023-02-03T07:49:35;16.30;96.60
16269;DHT22;8242;50.434;8.496;2023-02-03T07:52:02;16.20;96.50
16269;DHT22;8242;50.434;8.496;2023-02-03T07:54:29;16.20;96.50
16269;DHT22;8242;50.434;8.496;2023-02-03T07:56:56;16.20;96.50
16269;DHT22;8242;50.434;8.496;2023-02-03T07:59:23;16.20;96.50
16269;DHT22;8242;50.434;8.496;2023-02-03T08:01:50;16.20;96.50
16269;DHT22;8242;50.434;8.496;2023-02-03T08:04:20;16.10;96.50
16269;DHT22;8242;50.434;8.496;2023-02-03T08:06:46;16.10;96.50
16269;DHT22;8242;50.434;8.496;2023-02-03T08:09:14;16.10;96.50
16269;DHT22;8242;50.434;8.496;2023-02-03T08:11:40;16.10;96.40
16269;DHT22;8242;50.434;8.496;2023-02-03T08:14:08;16.10;96.40
16269;DHT22;8242;50.434;8.496;2023-02-03T08:16:35;16.10;96.40
16269;DHT22;8242;50.434;8.496;2023-02-03T08:19:01;16.10;96.30
16269;DHT22;8242;50.434;8.496;2023-02-03T08:21:28;16.20;96.30
16269;DHT22;8242;50.434;8.496;2023-02-03T08:23:55;16.20;96.20
16269;DHT22;8242;50.434;8.496;2023-02-03T08:26:21;16.30;96.20
16269;DHT22;8242;50.434;8.496;2023-02-03T08:28:48;16.30;96.10
16269;DHT22;8242;50.434;8.496;2023-02-03T08:31:16;16.30;96.10
16269;DHT22;8242;50.434;8.496;2023-02-03T08:33:43;16.30;96.10
16269;DHT22;8242;50.434;8.496;2023-02-03T08:36:09;16.30;96.00
16269;DHT22;8242;50.434;8.496;2023-02-03T08:38:36;16.30;96.00
16269;DHT22;8242;50.434;8.496;2023-02-03T08:41:07;16.30;96.00
16269;DHT22;8242;50.434;8.496;2023-02-03T08:43:33;16.30;96.00
16269;DHT22;8242;50.434;8.496;2023-02-03T08:46:01;16.20;96.00
16269;DHT22;8242;50.434;8.496;2023-02-03T08:48:29;16.30;96.10
16269;DHT22;8242;50.434;8.496;2023-02-03T08:50:55;16.30;96.20
16269;DHT22;8242;50.434;8.496;2023-02-03T08:53:22;16.30;96.20
16269;DHT22;8242;50.434;8.496;2023-02-03T08:55:48;16.30;96.20
16269;DHT22;8242;50.434;8.496;2023-02-03T08:58:15;16.40;96.30
16269;DHT22;8242;50.434;8.496;2023-02-03T09:00:41;16.40;96.30
16269;DHT22;8242;50.434;8.496;2023-02-03T09:03:08;16.40;96.40
16269;DHT22;8242;50.434;8.496;2023-02-03T09:05:36;16.40;96.40
16269;DHT22;8242;50.434;8.496;2023-02-03T09:08:03;16.40;96.60
16269;DHT22;8242;50.434;8.496;2023-02-03T09:10:29;16.30;96.50
16269;DHT22;8242;50.434;8.496;2023-02-03T09:12:56;16.40;96.50
16269;DHT22;8242;50.434;8.496;2023-02-03T09:15:22;16.30;96.50
16269;DHT22;8242;50.434;8.496;2023-02-03T09:17:49;16.30;96.50
16269;DHT22;8242;50.434;8.496;2023-02-03T09:20:16;16.30;96.50
16269;DHT22;8242;50.434;8.496;2023-02-03T09:22:44;16.30;96.50
16269;DHT22;8242;50.434;8.496;2023-02-03T09:25:11;16.40;96.60
16269;DHT22;8242;50.434;8.496;2023-02-03T09:27:38;16.30;96.50
16269;DHT22;8242;50.434;8.496;2023-02-03T09:30:05;16.30;96.60
16269;DHT22;8242;50.434;8.496;2023-02-03T09:32:31;16.30;96.60
16269;DHT22;8242;50.434;8.496;2023-02-03T09:34:58;16.30;96.60
16269;DHT22;8242;50.434;8.496;2023-02-03T09:37:24;16.30;96.60
16269;DHT22;8242;50.434;8.496;2023-02-03T09:39:52;16.30;96.60
16269;DHT22;8242;50.434;8.496;2023-02-03T09:45:08;16.40;96.60
16269;DHT22;8242;50.434;8.496;2023-02-03T09:47:37;16.40;96.50
16269;DHT22;8242;50.434;8.496;2023-02-03T09:50:05;16.40;96.50
16269;DHT22;8242;50.434;8.496;2023-02-03T09:52:33;16.50;96.50
16269;DHT22;8242;50.434;8.496;2023-02-03T09:55:03;16.50;96.40
16269;DHT22;8242;50.434;8.496;2023-02-03T09:57:31;16.60;96.30
16269;DHT22;8242;50.434;8.496;2023-02-03T10:00:01;16.60;96.20
16269;DHT22;8242;50.434;8.496;2023-02-03T10:02:32;16.60;96.20
16269;DHT22;8242;50.434;8.496;2023-02-03T10:05:06;16.60;96.10
16269;DHT22;8242;50.434;8.496;2023-02-03T10:07:38;16.60;96.10
16269;DHT22;8242;50.434;8.496;2023-02-03T10:10:10;16.60;96.20
16269;DHT22;8242;50.434;8.496;2023-02-03T10:15:37;16.40;96.20
16269;DHT22;8242;50.434;8.496;2023-02-03T10:18:10;16.40;96.30
16269;DHT22;8242;50.434;8.496;2023-02-03T10:20:38;16.40;96.30
16269;DHT22;8242;50.434;8.496;2023-02-03T10:23:08;16.40;96.20
16269;DHT22;8242;50.434;8.496;2023-02-03T10:25:38;16.40;96.40
16269;DHT22;8242;50.434;8.496;2023-02-03T10:28:08;16.40;96.40
16269;DHT22;8242;50.434;8.496;2023-02-03T10:30:37;16.40;96.40
16269;DHT22;8242;50.434;8.496;2023-02-03T10:33:10;16.40;96.40
16269;DHT22;8242;50.434;8.496;2023-02-03T10:35:38;16.50;96.40
16269;DHT22;8242;50.434;8.496;2023-02-03T10:38:11;16.50;96.40
16269;DHT22;8242;50.434;8.496;2023-02-03T10:40:40;16.40;96.30
16269;DHT22;8242;50.434;8.496;2023-02-03T10:43:07;16.50;96.40
16269;DHT22;8242;50.434;8.496;2023-02-03T10:45:52;16.50;96.40
16269;DHT22;8242;50.434;8.496;2023-02-03T10:48:18;16.50;96.40
16269;DHT22;8242;50.434;8.496;2023-02-03T10:50:47;16.50;96.40
16269;DHT22;8242;50.434;8.496;2023-02-03T10:53:19;16.50;96.40
16269;DHT22;8242;50.434;8.496;2023-02-03T10:55:48;16.50;96.40
16269;DHT22;8242;50.434;8.496;2023-02-03T10:58:16;16.50;96.50
16269;DHT22;8242;50.434;8.496;2023-02-03T11:00:44;16.40;96.40
16269;DHT22;8242;50.434;8.496;2023-02-03T11:03:15;16.40;96.50
16269;DHT22;8242;50.434;8.496;2023-02-03T11:05:46;16.40;96.50
16269;DHT22;8242;50.434;8.496;2023-02-03T11:08:13;16.50;96.50
16269;DHT22;8242;50.434;8.496;2023-02-03T11:10:40;16.40;96.50
16269;DHT22;8242;50.434;8.496;2023-02-03T11:13:15;16.50;96.60
16269;DHT22;8242;50.434;8.496;2023-02-03T11:15:43;16.50;96.50
16269;DHT22;8242;50.434;8.496;2023-02-03T11:18:26;16.50;96.50
16269;DHT22;8242;50.434;8.496;2023-02-03T11:20:55;16.40;96.40
16269;DHT22;8242;50.434;8.496;2023-02-03T11:23:22;16.50;96.40
16269;DHT22;8242;50.434;8.496;2023-02-03T11:25:49;16.50;96.40
16269;DHT22;8242;50.434;8.496;2023-02-03T11:28:16;16.40;96.30
16269;DHT22;8242;50.434;8.496;2023-02-03T11:30:43;16.40;96.30
16269;DHT22;8242;50.434;8.496;2023-02-03T11:33:14;16.40;96.30
16269;DHT22;8242;50.434;8.496;2023-02-03T11:35:50;16.40;96.30
16269;DHT22;8242;50.434;8.496;2023-02-03T11:38:27;16.40;96.30
16269;DHT22;8242;50.434;8.496;2023-02-03T11:40:57;16.40;96.50
16269;DHT22;8242;50.434;8.496;2023-02-03T11:43:26;16.40;96.30
16269;DHT22;8242;50.434;8.496;2023-02-03T11:45:53;16.40;96.30
16269;DHT22;8242;50.434;8.496;2023-02-03T11:48:25;16.40;96.30
16269;DHT22;8242;50.434;8.496;2023-02-03T11:50:56;16.30;96.20
16269;DHT22;8242;50.434;8.496;2023-02-03T11:53:26;16.30;96.30
16269;DHT22;8242;50.434;8.496;2023-02-03T11:55:57;16.30;96.30
16269;DHT22;8242;50.434;8.496;2023-02-03T11:58:36;16.30;96.30
16269;DHT22;8242;50.434;8.496;2023-02-03T12:01:07;16.30;96.30
16269;DHT22;8242;50.434;8.496;2023-02-03T12:03:39;16.30;96.40
16269;DHT22;8242;50.434;8.496;2023-02-03T12:06:18;16.20;96.30
16269;DHT22;8242;50.434;8.496;2023-02-03T12:08:51;16.20;96.30
16269;DHT22;8242;50.434;8.496;2023-02-03T12:11:22;16.20;96.40
16269;DHT22;8242;50.434;8.496;2023-02-03T12:14:01;16.20;96.40
16269;DHT22;8242;50.434;8.496;2023-02-03T12:16:47;16.20;96.40
16269;DHT22;8242;50.434;8.496;2023-02-03T12:19:17;16.20;96.40
16269;DHT22;8242;50.434;8.496;2023-02-03T12:21:48;16.20;96.40
16269;DHT22;8242;50.434;8.496;2023-02-03T12:24:23;16.20;96.40
16269;DHT22;8242;50.434;8.496;2023-02-03T12:26:56;16.20;96.40
16269;DHT22;8242;50.434;8.496;2023-02-03T12:29:26;16.20;96.40
16269;DHT22;8242;50.434;8.496;2023-02-03T12:31:57;16.20;96.30
16269;DHT22;8242;50.434;8.496;2023-02-03T12:34:27;16.20;96.30
16269;DHT22;8242;50.434;8.496;2023-02-03T12:36:56;16.20;96.30
16269;DHT22;8242;50.434;8.496;2023-02-03T12:39:25;16.30;96.40
16269;DHT22;8242;50.434;8.496;2023-02-03T12:41:54;16.30;96.30
16269;DHT22;8242;50.434;8.496;2023-02-03T12:44:22;16.40;96.20
16269;DHT22;8242;50.434;8.496;2023-02-03T12:46:51;17.00;95.40
16269;DHT22;8242;50.434;8.496;2023-02-03T12:49:25;17.60;94.80
16269;DHT22;8242;50.434;8.496;2023-02-03T12:51:54;18.00;94.40
16269;DHT22;8242;50.434;8.496;2023-02-03T12:54:27;18.30;94.10
16269;DHT22;8242;50.434;8.496;2023-02-03T12:56:54;18.50;93.90
16269;DHT22;8242;50.434;8.496;2023-02-03T12:59:24;18.60;93.90
16269;DHT22;8242;50.434;8.496;2023-02-03T13:01:52;18.70;93.90
16269;DHT22;8242;50.434;8.496;2023-02-03T13:04:23;18.80;93.80
16269;DHT22;8242;50.434;8.496;2023-02-03T13:06:56;18.80;94.10
16269;DHT22;8242;50.434;8.496;2023-02-03T13:09:26;18.70;94.10
16269;DHT22;8242;50.434;8.496;2023-02-03T13:11:55;18.50;94.40
16269;DHT22;8242;50.434;8.496;2023-02-03T13:14:27;18.40;94.60
16269;DHT22;8242;50.434;8.496;2023-02-03T13:16:57;18.40;94.70
16269;DHT22;8242;50.434;8.496;2023-02-03T13:19:25;18.40;94.80
16269;DHT22;8242;50.434;8.496;2023-02-03T13:21:53;18.40;94.90
16269;DHT22;8242;50.434;8.496;2023-02-03T13:24:19;18.50;94.90
16269;DHT22;8242;50.434;8.496;2023-02-03T13:27:10;18.40;94.90
16269;DHT22;8242;50.434;8.496;2023-02-03T13:29:49;18.40;95.00
16269;DHT22;8242;50.434;8.496;2023-02-03T13:32:23;18.30;95.10
16269;DHT22;8242;50.434;8.496;2023-02-03T13:35:05;18.30;95.10
16269;DHT22;8242;50.434;8.496;2023-02-03T13:40:22;18.20;95.30
16269;DHT22;8242;50.434;8.496;2023-02-03T13:42:51;18.20;95.40
16269;DHT22;8242;50.434;8.496;2023-02-03T13:45:21;18.20;95.40
16269;DHT22;8242;50.434;8.496;2023-02-03T13:47:51;18.20;95.40
16269;DHT22;8242;50.434;8.496;2023-02-03T13:50:20;18.20;95.40
16269;DHT22;8242;50.434;8.496;2023-02-03T13:52:52;18.10;95.40
16269;DHT22;8242;50.434;8.496;2023-02-03T13:55:30;18.20;95.50
16269;DHT22;8242;50.434;8.496;2023-02-03T13:57:58;18.20;95.40
16269;DHT22;8242;50.434;8.496;2023-02-03T14:03:15;18.00;95.60
16269;DHT22;8242;50.434;8.496;2023-02-03T14:05:43;17.90;95.60
16269;DHT22;8242;50.434;8.496;2023-02-03T14:08:40;17.90;95.70
16269;DHT22;8242;50.434;8.496;2023-02-03T14:13:53;17.90;96.80
16269;DHT22;8242;50.434;8.496;2023-02-03T14:16:21;18.00;95.70
16269;DHT22;8242;50.434;8.496;2023-02-03T14:18:50;17.90;95.60
16269;DHT22;8242;50.434;8.496;2023-02-03T14:21:18;18.00;95.70
16269;DHT22;8242;50.434;8.496;2023-02-03T14:23:49;18.00;95.70
16269;DHT22;8242;50.434;8.496;2023-02-03T14:26:18;18.10;95.60
16269;DHT22;8242;50.434;8.496;2023-02-03T14:28:46;18.10;95.60
16269;DHT22;8242;50.434;8.496;2023-02-03T14:31:13;18.10;95.50
16269;DHT22;8242;50.434;8.496;2023-02-03T14:33:49;18.10;95.50
16269;DHT22;8242;50.434;8.496;2023-02-03T14:36:27;18.10;95.40
16269;DHT22;8242;50.434;8.496;2023-02-03T14:38:54;18.10;95.40
16269;DHT22;8242;50.434;8.496;2023-02-03T14:41:21;18.00;95.60
16269;DHT22;8242;50.434;8.496;2023-02-03T14:43:51;18.20;95.60
16269;DHT22;8242;50.434;8.496;2023-02-03T14:46:25;18.30;95.70
16269;DHT22;8242;50.434;8.496;2023-02-03T14:49:05;18.40;95.60
16269;DHT22;8242;50.434;8.496;2023-02-03T14:51:39;18.60;95.40
16269;DHT22;8242;50.434;8.496;2023-02-03T14:54:15;18.80;95.20
16269;DHT22;8242;50.434;8.496;2023-02-03T14:56:45;18.90;95.10
16269;DHT22;8242;50.434;8.496;2023-02-03T14:59:34;18.90;95.00
16269;DHT22;8242;50.434;8.496;2023-02-03T15:02:12;18.90;94.90
16269;DHT22;8242;50.434;8.496;2023-02-03T15:04:41;19.00;95.00
16269;DHT22;8242;50.434;8.496;2023-02-03T15:09:51;18.90;95.20
16269;DHT22;8242;50.434;8.496;2023-02-03T15:12:21;18.90;94.90
16269;DHT22;8242;50.434;8.496;2023-02-03T15:14:48;18.90;94.90
16269;DHT22;8242;50.434;8.496;2023-02-03T15:17:20;18.90;94.90
16269;DHT22;8242;50.434;8.496;2023-02-03T15:19:49;18.90;94.90
16269;DHT22;8242;50.434;8.496;2023-02-03T15:22:17;18.90;94.90
16269;DHT22;8242;50.434;8.496;2023-02-03T15:24:43;18.80;94.90
16269;DHT22;8242;50.434;8.496;2023-02-03T15:27:17;18.80;94.90
16269;DHT22;8242;50.434;8.496;2023-02-03T15:29:46;18.80;94.90
16269;DHT22;8242;50.434;8.496;2023-02-03T15:32:13;18.80;94.90
16269;DHT22;8242;50.434;8.496;2023-02-03T15:34:41;18.80;94.90
16269;DHT22;8242;50.434;8.496;2023-02-03T15:37:12;18.80;94.90
16269;DHT22;8242;50.434;8.496;2023-02-03T15:39:48;18.80;94.90
16269;DHT22;8242;50.434;8.496;2023-02-03T15:42:19;18.90;94.80
16269;DHT22;8242;50.434;8.496;2023-02-03T15:44:47;18.90;94.80
16269;DHT22;8242;50.434;8.496;2023-02-03T15:47:18;18.90;94.70
16269;DHT22;8242;50.434;8.496;2023-02-03T15:49:47;19.00;94.70
16269;DHT22;8242;50.434;8.496;2023-02-03T15:52:19;19.00;94.70
16269;DHT22;8242;50.434;8.496;2023-02-03T15:54:48;19.00;94.70
16269;DHT22;8242;50.434;8.496;2023-02-03T15:57:18;19.10;94.60
16269;DHT22;8242;50.434;8.496;2023-02-03T15:59:49;19.00;94.60
16269;DHT22;8242;50.434;8.496;2023-02-03T16:02:18;19.10;94.60
16269;DHT22;8242;50.434;8.496;2023-02-03T16:04:45;19.10;94.60
16269;DHT22;8242;50.434;8.496;2023-02-03T16:07:14;19.10;94.50
16269;DHT22;8242;50.434;8.496;2023-02-03T16:09:44;19.10;94.60
16269;DHT22;8242;50.434;8.496;2023-02-03T16:12:13;19.10;94.60
16269;DHT22;8242;50.434;8.496;2023-02-03T16:14:40;19.10;94.60
16269;DHT22;8242;50.434;8.496;2023-02-03T16:17:14;19.00;94.60